| time (UTC) | temp C | wind direction | speed KPH | gust KPH | rain 1hr cm | rain 24hr cm | rain mn cm | humidity % | barometer mb |
| 20260506143628 | 10 | 150 | 3.2 | 4.8 | 0.00 | 0.00 | 0.00 | 75 | 1011.0 |
| 20260506143127 | 9 | 146 | 6.4 | 6.4 | 0.00 | 0.00 | 0.00 | 78 | 1012.0 |
| 20260506142627 | 9 | 174 | 3.2 | 6.4 | 0.00 | 0.00 | 0.00 | 76 | 1012.0 |
| 20260506142127 | 9 | 227 | 1.6 | 4.8 | 0.00 | 0.00 | 0.00 | 79 | 1012.0 |
| 20260506141628 | 9 | 36 | 0.0 | 3.2 | 0.00 | 0.00 | 0.00 | 75 | 1012.0 |
| 20260506141127 | 9 | 0 | 0.0 | 0.0 | 0.00 | 0.00 | 0.00 | 76 | 1011.0 |
| 20260506140629 | 8 | 135 | 0.0 | 1.6 | 0.00 | 0.00 | 0.00 | 80 | 1011.0 |
| 20260506140128 | 8 | 351 | 1.6 | 3.2 | 0.00 | 0.00 | 0.00 | 78 | 1011.0 |
| 20260506135628 | 8 | 131 | 0.0 | 1.6 | 0.00 | 0.00 | 0.00 | 80 | 1011.0 |
| 20260506135127 | 8 | 0 | 0.0 | 0.0 | 0.00 | 0.00 | 0.00 | 83 | 1011.0 |
| 20260506134630 | 7 | 121 | 0.0 | 1.6 | 0.00 | 0.00 | 0.00 | 81 | 1011.0 |
| 20260506134127 | 6 | 0 | 0.0 | 0.0 | 0.00 | 0.00 | 0.00 | 84 | 1012.0 |
| 20260506133627 | 6 | 149 | 0.0 | 0.0 | 0.00 | 0.00 | 0.00 | 84 | 1012.0 |
| 20260506133128 | 6 | 199 | 0.0 | 0.0 | 0.00 | 0.00 | 0.00 | 83 | 1012.0 |
| 20260506132630 | 6 | 221 | 3.2 | 3.2 | 0.00 | 0.00 | 0.00 | 85 | 1011.0 |
| 20260506132127 | 6 | 0 | 0.0 | 0.0 | 0.00 | 0.00 | 0.00 | 84 | 1011.0 |
| 20260506131628 | 6 | 0 | 0.0 | 0.0 | 0.00 | 0.00 | 0.00 | 82 | 1011.0 |
| 20260506131129 | 6 | 0 | 0.0 | 0.0 | 0.00 | 0.00 | 0.00 | 82 | 1011.0 |
| 20260506130629 | 6 | 0 | 0.0 | 0.0 | 0.00 | 0.00 | 0.00 | 80 | 1011.0 |
| 20260506130128 | 6 | 171 | 1.6 | 1.6 | 0.00 | 0.00 | 0.00 | 80 | 1011.0 |
| 20260506125627 | 6 | 127 | 1.6 | 1.6 | 0.00 | 0.00 | 0.00 | 84 | 1011.0 |
| 20260506125130 | 6 | 160 | 1.6 | 1.6 | 0.00 | 0.00 | 0.00 | 84 | 1011.0 |
| 20260506124627 | 6 | 148 | 1.6 | 1.6 | 0.00 | 0.00 | 0.00 | 84 | 1011.0 |
| 20260506124127 | 6 | 154 | 1.6 | 1.6 | 0.00 | 0.00 | 0.00 | 84 | 1011.0 |
| 20260506123627 | 6 | 109 | 3.2 | 3.2 | 0.00 | 0.00 | 0.00 | 82 | 1011.0 |
| 20260506123127 | 6 | 237 | 0.0 | 0.0 | 0.00 | 0.00 | 0.00 | 81 | 1011.0 |
| 20260506122627 | 6 | 243 | 0.0 | 0.0 | 0.00 | 0.00 | 0.00 | 81 | 1011.0 |
| 20260506122128 | 6 | 248 | 1.6 | 1.6 | 0.00 | 0.00 | 0.00 | 81 | 1011.0 |
| 20260506121627 | 6 | 0 | 0.0 | 0.0 | 0.00 | 0.00 | 0.00 | 81 | 1011.0 |
| 20260506121128 | 6 | 153 | 0.0 | 1.6 | 0.00 | 0.00 | 0.00 | 80 | 1011.0 |
| 20260506120627 | 6 | 128 | 1.6 | 1.6 | 0.00 | 0.00 | 0.00 | 79 | 1011.0 |
| 20260506120128 | 7 | 134 | 1.6 | 1.6 | 0.00 | 0.00 | 0.00 | 77 | 1011.0 |
| 20260506115627 | 7 | 164 | 1.6 | 3.2 | 0.00 | 0.00 | 0.00 | 78 | 1011.0 |
| 20260506115127 | 7 | 198 | 3.2 | 3.2 | 0.00 | 0.00 | 0.00 | 78 | 1011.0 |
| 20260506114627 | 7 | 182 | 0.0 | 1.6 | 0.00 | 0.00 | 0.00 | 80 | 1011.0 |
| 20260506114128 | 7 | 0 | 0.0 | 0.0 | 0.00 | 0.00 | 0.00 | 79 | 1011.0 |
| 20260506113627 | 7 | 62 | 1.6 | 1.6 | 0.00 | 0.00 | 0.00 | 77 | 1011.0 |
| 20260506113127 | 7 | 195 | 3.2 | 3.2 | 0.00 | 0.00 | 0.00 | 77 | 1011.0 |
| 20260506112628 | 7 | 197 | 3.2 | 3.2 | 0.00 | 0.00 | 0.00 | 79 | 1011.0 |
| 20260506112127 | 7 | 0 | 0.0 | 0.0 | 0.00 | 0.00 | 0.00 | 80 | 1011.0 |
| 20260506111627 | 7 | 136 | 0.0 | 0.0 | 0.00 | 0.00 | 0.00 | 80 | 1011.0 |
| 20260506111127 | 7 | 168 | 1.6 | 1.6 | 0.00 | 0.00 | 0.00 | 80 | 1011.0 |
| 20260506110627 | 7 | 0 | 0.0 | 0.0 | 0.00 | 0.00 | 0.00 | 80 | 1011.0 |
| 20260506110127 | 7 | 147 | 1.6 | 1.6 | 0.00 | 0.00 | 0.00 | 80 | 1011.0 |
| 20260506105628 | 7 | 125 | 3.2 | 3.2 | 0.00 | 0.00 | 0.00 | 80 | 1011.0 |
| 20260506105127 | 8 | 162 | 1.6 | 1.6 | 0.00 | 0.00 | 0.00 | 77 | 1011.0 |
| 20260506104627 | 8 | 0 | 0.0 | 0.0 | 0.00 | 0.00 | 0.00 | 78 | 1011.0 |
| 20260506104127 | 8 | 219 | 3.2 | 3.2 | 0.00 | 0.00 | 0.00 | 77 | 1011.0 |
| 20260506103627 | 8 | 192 | 0.0 | 1.6 | 0.00 | 0.00 | 0.00 | 77 | 1010.0 |
| 20260506103127 | 8 | 201 | 1.6 | 3.2 | 0.00 | 0.00 | 0.00 | 76 | 1010.0 |
| 20260506102627 | 8 | 0 | 0.0 | 0.0 | 0.00 | 0.00 | 0.00 | 76 | 1010.0 |
| 20260506102127 | 7 | 171 | 1.6 | 1.6 | 0.00 | 0.00 | 0.00 | 76 | 1010.0 |
| 20260506101627 | 8 | 160 | 1.6 | 1.6 | 0.00 | 0.00 | 0.00 | 76 | 1010.0 |
| 20260506101127 | 8 | 131 | 1.6 | 1.6 | 0.00 | 0.00 | 0.00 | 74 | 1010.0 |
| 20260506100627 | 8 | 207 | 1.6 | 1.6 | 0.00 | 0.00 | 0.00 | 74 | 1010.0 |
| 20260506100127 | 8 | 115 | 1.6 | 1.6 | 0.00 | 0.00 | 0.00 | 74 | 1010.0 |
| 20260506095628 | 8 | 0 | 0.0 | 0.0 | 0.00 | 0.00 | 0.00 | 74 | 1010.0 |
| 20260506095127 | 9 | 193 | 1.6 | 3.2 | 0.00 | 0.00 | 0.00 | 73 | 1010.0 |
| 20260506094627 | 9 | 0 | 0.0 | 0.0 | 0.00 | 0.00 | 0.00 | 74 | 1010.0 |
| 20260506094127 | 9 | 235 | 1.6 | 3.2 | 0.00 | 0.00 | 0.00 | 72 | 1010.0 |
| 20260506093628 | 9 | 87 | 0.0 | 3.2 | 0.00 | 0.00 | 0.00 | 73 | 1010.0 |
| 20260506093127 | 9 | 259 | 1.6 | 3.2 | 0.00 | 0.00 | 0.00 | 72 | 1010.0 |
| 20260506092627 | 9 | 210 | 3.2 | 3.2 | 0.00 | 0.00 | 0.00 | 75 | 1010.0 |
| 20260506092127 | 10 | 90 | 3.2 | 3.2 | 0.00 | 0.00 | 0.00 | 74 | 1010.0 |
| 20260506091628 | 10 | 195 | 1.6 | 3.2 | 0.00 | 0.00 | 0.00 | 71 | 1010.0 |
| 20260506091128 | 10 | 180 | 1.6 | 1.6 | 0.00 | 0.00 | 0.00 | 71 | 1010.0 |
| 20260506090627 | 10 | 173 | 3.2 | 4.8 | 0.00 | 0.00 | 0.00 | 70 | 1010.0 |
| 20260506090128 | 10 | 186 | 1.6 | 3.2 | 0.00 | 0.00 | 0.00 | 67 | 1010.0 |
| 20260506085628 | 10 | 195 | 0.0 | 1.6 | 0.00 | 0.00 | 0.00 | 70 | 1010.0 |
| 20260506085128 | 10 | 246 | 1.6 | 3.2 | 0.00 | 0.00 | 0.00 | 70 | 1010.0 |
| 20260506084627 | 10 | 188 | 3.2 | 4.8 | 0.00 | 0.00 | 0.00 | 67 | 1009.0 |
| 20260506084127 | 11 | 152 | 1.6 | 1.6 | 0.00 | 0.00 | 0.00 | 65 | 1009.0 |
| 20260506083628 | 11 | 286 | 3.2 | 3.2 | 0.00 | 0.00 | 0.00 | 67 | 1009.0 |
| 20260506083127 | 11 | 137 | 0.0 | 3.2 | 0.00 | 0.00 | 0.00 | 67 | 1009.0 |
| 20260506082628 | 11 | 167 | 1.6 | 3.2 | 0.00 | 0.00 | 0.00 | 66 | 1009.0 |
| 20260506082128 | 11 | 240 | 1.6 | 3.2 | 0.00 | 0.00 | 0.00 | 66 | 1009.0 |
| 20260506081627 | 11 | 228 | 1.6 | 1.6 | 0.00 | 0.00 | 0.00 | 66 | 1009.0 |
| 20260506081127 | 11 | 0 | 0.0 | 0.0 | 0.00 | 0.00 | 0.00 | 68 | 1009.0 |
| 20260506080627 | 11 | 0 | 0.0 | 0.0 | 0.00 | 0.00 | 0.00 | 63 | 1009.0 |
| 20260506080127 | 11 | 173 | 0.0 | 0.0 | 0.00 | 0.00 | 0.00 | 62 | 1009.0 |
| 20260506073128 | 12 | 144 | 3.2 | 6.4 | 0.00 | 0.00 | 0.00 | 61 | 1009.0 |
| 20260506072627 | 12 | 309 | 1.6 | 4.8 | 0.00 | 0.00 | 0.00 | 67 | 1009.0 |
| 20260506072128 | 12 | 0 | 0.0 | 0.0 | 0.00 | 0.00 | 0.00 | 61 | 1009.0 |
| 20260506071627 | 13 | 180 | 3.2 | 4.8 | 0.00 | 0.00 | 0.00 | 58 | 1009.0 |
| 20260506071127 | 12 | 165 | 4.8 | 6.4 | 0.00 | 0.00 | 0.00 | 57 | 1009.0 |
| 20260506070627 | 12 | 187 | 3.2 | 4.8 | 0.00 | 0.00 | 0.00 | 61 | 1009.0 |
| 20260506070128 | 12 | 3 | 1.6 | 4.8 | 0.00 | 0.00 | 0.00 | 62 | 1009.0 |
| 20260506062127 | 15 | 35 | 3.2 | 6.4 | 0.00 | 0.00 | 0.00 | 55 | 1008.0 |
| 20260506061627 | 15 | 203 | 3.2 | 4.8 | 0.00 | 0.00 | 0.00 | 57 | 1008.0 |
| 20260506061128 | 15 | 320 | 1.6 | 4.8 | 0.00 | 0.00 | 0.00 | 60 | 1008.0 |
| 20260506060628 | 16 | 159 | 6.4 | 9.7 | 0.00 | 0.00 | 0.00 | 50 | 1008.0 |
| 20260506060127 | 16 | 129 | 3.2 | 4.8 | 0.00 | 0.00 | 0.00 | 48 | 1008.0 |
| 20260506051127 | 18 | 137 | 3.2 | 4.8 | 0.00 | 0.00 | 0.00 | 41 | 1008.0 |
| 20260506050627 | 18 | 109 | 3.2 | 8.0 | 0.00 | 0.00 | 0.00 | 40 | 1008.0 |
| 20260506050127 | 18 | 107 | 3.2 | 4.8 | 0.00 | 0.00 | 0.00 | 42 | 1008.0 |
| 20260506045127 | 19 | 133 | 3.2 | 4.8 | 0.00 | 0.00 | 0.00 | 41 | 1008.0 |
| 20260506044627 | 20 | 144 | 8.0 | 12.9 | 0.00 | 0.00 | 0.00 | 39 | 1008.0 |
| 20260506044129 | 19 | 139 | 4.8 | 6.4 | 0.00 | 0.00 | 0.00 | 37 | 1008.0 |
| 20260506043627 | 19 | 101 | 4.8 | 8.0 | 0.00 | 0.00 | 0.00 | 37 | 1008.0 |
| 20260506043127 | 19 | 60 | 3.2 | 6.4 | 0.00 | 0.00 | 0.00 | 40 | 1008.0 |
| 20260506042627 | 19 | 56 | 3.2 | 4.8 | 0.00 | 0.00 | 0.00 | 41 | 1008.0 |
| 20260506042127 | 20 | 131 | 3.2 | 6.4 | 0.00 | 0.00 | 0.00 | 41 | 1008.0 |
| 20260506041627 | 20 | 142 | 8.0 | 12.9 | 0.00 | 0.00 | 0.00 | 39 | 1008.0 |
| 20260506041127 | 21 | 155 | 3.2 | 6.4 | 0.00 | 0.00 | 0.00 | 36 | 1008.0 |
| 20260506040628 | 21 | 85 | 8.0 | 11.3 | 0.00 | 0.00 | 0.00 | 36 | 1007.0 |
| 20260506040127 | 21 | 72 | 4.8 | 9.7 | 0.00 | 0.00 | 0.00 | 36 | 1007.0 |
| 20260506035628 | 21 | 72 | 8.0 | 9.7 | 0.00 | 0.00 | 0.00 | 36 | 1007.0 |
| 20260506035128 | 21 | 48 | 6.4 | 9.7 | 0.00 | 0.00 | 0.00 | 37 | 1007.0 |
| 20260506034627 | 21 | 84 | 8.0 | 12.9 | 0.00 | 0.00 | 0.00 | 37 | 1007.0 |
| 20260506034127 | 21 | 73 | 4.8 | 9.7 | 0.00 | 0.00 | 0.00 | 38 | 1007.0 |
| 20260506033627 | 21 | 105 | 6.4 | 8.0 | 0.00 | 0.00 | 0.00 | 37 | 1007.0 |
| 20260506033128 | 21 | 96 | 6.4 | 14.5 | 0.00 | 0.00 | 0.00 | 37 | 1007.0 |
| 20260506032627 | 22 | 113 | 4.8 | 8.0 | 0.00 | 0.00 | 0.00 | 36 | 1007.0 |
| 20260506032128 | 22 | 133 | 3.2 | 6.4 | 0.00 | 0.00 | 0.00 | 36 | 1007.0 |
| 20260506031627 | 22 | 143 | 3.2 | 8.0 | 0.00 | 0.00 | 0.00 | 35 | 1007.0 |
| 20260506031127 | 22 | 131 | 6.4 | 9.7 | 0.00 | 0.00 | 0.00 | 35 | 1007.0 |
| 20260506030627 | 23 | 146 | 4.8 | 8.0 | 0.00 | 0.00 | 0.00 | 35 | 1007.0 |
| 20260506030127 | 23 | 162 | 6.4 | 8.0 | 0.00 | 0.00 | 0.00 | 34 | 1007.0 |
| 20260506025628 | 23 | 141 | 9.7 | 12.9 | 0.00 | 0.00 | 0.00 | 34 | 1007.0 |
| 20260506025127 | 23 | 143 | 8.0 | 9.7 | 0.00 | 0.00 | 0.00 | 34 | 1007.0 |
| 20260506024627 | 24 | 141 | 6.4 | 9.7 | 0.00 | 0.00 | 0.00 | 34 | 1007.0 |
| 20260506024127 | 24 | 131 | 8.0 | 11.3 | 0.00 | 0.00 | 0.00 | 34 | 1007.0 |
| 20260506023628 | 24 | 152 | 3.2 | 6.4 | 0.00 | 0.00 | 0.00 | 34 | 1007.0 |
| 20260506023127 | 25 | 142 | 4.8 | 6.4 | 0.00 | 0.00 | 0.00 | 35 | 1007.0 |
| 20260506022627 | 25 | 145 | 4.8 | 6.4 | 0.00 | 0.00 | 0.00 | 35 | 1007.0 |
| 20260506022136 | 25 | 122 | 4.8 | 9.7 | 0.00 | 0.00 | 0.00 | 35 | 1007.0 |
| 20260506021628 | 26 | 143 | 6.4 | 11.3 | 0.00 | 0.00 | 0.00 | 34 | 1007.0 |
| 20260506021128 | 26 | 139 | 8.0 | 12.9 | 0.00 | 0.00 | 0.00 | 33 | 1007.0 |
| 20260506020627 | 27 | 113 | 6.4 | 8.0 | 0.00 | 0.00 | 0.00 | 30 | 1007.0 |
| 20260506020128 | 27 | 114 | 6.4 | 9.7 | 0.00 | 0.00 | 0.00 | 29 | 1007.0 |
| 20260506015628 | 27 | 103 | 6.4 | 9.7 | 0.00 | 0.00 | 0.00 | 30 | 1007.0 |
| 20260506015127 | 27 | 126 | 4.8 | 6.4 | 0.00 | 0.00 | 0.00 | 30 | 1007.0 |
| 20260506014627 | 27 | 84 | 6.4 | 9.7 | 0.00 | 0.00 | 0.00 | 30 | 1007.0 |
| 20260506014127 | 27 | 129 | 4.8 | 6.4 | 0.00 | 0.00 | 0.00 | 31 | 1007.0 |
| 20260506013627 | 27 | 152 | 4.8 | 8.0 | 0.00 | 0.00 | 0.00 | 29 | 1007.0 |
| 20260506013129 | 27 | 128 | 4.8 | 8.0 | 0.00 | 0.00 | 0.00 | 32 | 1007.0 |
| 20260506012627 | 27 | 131 | 6.4 | 11.3 | 0.00 | 0.00 | 0.00 | 29 | 1007.0 |
| 20260506012128 | 27 | 120 | 6.4 | 9.7 | 0.00 | 0.00 | 0.00 | 30 | 1007.0 |
| 20260506011628 | 27 | 129 | 6.4 | 8.0 | 0.00 | 0.00 | 0.00 | 31 | 1007.0 |
| 20260506011127 | 27 | 122 | 4.8 | 8.0 | 0.00 | 0.00 | 0.00 | 30 | 1007.0 |
| 20260506010627 | 28 | 103 | 8.0 | 11.3 | 0.00 | 0.00 | 0.00 | 29 | 1007.0 |
| 20260506010129 | 28 | 123 | 4.8 | 8.0 | 0.00 | 0.00 | 0.00 | 29 | 1007.0 |
| 20260506005630 | 28 | 130 | 6.4 | 9.7 | 0.00 | 0.00 | 0.00 | 30 | 1007.0 |
| 20260506005127 | 28 | 121 | 3.2 | 4.8 | 0.00 | 0.00 | 0.00 | 30 | 1007.0 |
| 20260506004628 | 28 | 121 | 1.6 | 4.8 | 0.00 | 0.00 | 0.00 | 27 | 1007.0 |
| 20260506004127 | 28 | 150 | 1.6 | 4.8 | 0.00 | 0.00 | 0.00 | 28 | 1007.0 |
| 20260506003627 | 28 | 76 | 4.8 | 8.0 | 0.00 | 0.00 | 0.00 | 29 | 1007.0 |
| 20260506003127 | 28 | 97 | 6.4 | 12.9 | 0.00 | 0.00 | 0.00 | 31 | 1007.0 |
| 20260506002627 | 28 | 123 | 6.4 | 11.3 | 0.00 | 0.00 | 0.00 | 29 | 1008.0 |
| 20260506002128 | 28 | 131 | 3.2 | 4.8 | 0.00 | 0.00 | 0.00 | 29 | 1008.0 |
| 20260506001627 | 28 | 123 | 3.2 | 6.4 | 0.00 | 0.00 | 0.00 | 29 | 1008.0 |
| 20260506001128 | 28 | 164 | 4.8 | 8.0 | 0.00 | 0.00 | 0.00 | 29 | 1008.0 |
| 20260506000627 | 28 | 163 | 1.6 | 3.2 | 0.00 | 0.00 | 0.00 | 28 | 1008.0 |
| 20260506000127 | 28 | 184 | 1.6 | 3.2 | 0.00 | 0.00 | 0.00 | 28 | 1008.0 |
| 20260505235627 | 28 | 83 | 4.8 | 6.4 | 0.00 | 0.00 | 0.00 | 29 | 1008.0 |
| 20260505235127 | 28 | 237 | 0.0 | 1.6 | 0.00 | 0.00 | 0.00 | 31 | 1008.0 |
| 20260505234628 | 28 | 351 | 3.2 | 6.4 | 0.00 | 0.00 | 0.00 | 28 | 1008.0 |
| 20260505234127 | 28 | 101 | 8.0 | 9.7 | 0.00 | 0.00 | 0.00 | 29 | 1008.0 |
| 20260505233627 | 28 | 285 | 3.2 | 6.4 | 0.00 | 0.00 | 0.00 | 29 | 1008.0 |
| 20260505233127 | 28 | 237 | 1.6 | 4.8 | 0.00 | 0.00 | 0.00 | 31 | 1008.0 |
| 20260505232627 | 28 | 161 | 4.8 | 6.4 | 0.00 | 0.00 | 0.00 | 27 | 1008.0 |
| 20260505232127 | 28 | 175 | 1.6 | 4.8 | 0.00 | 0.00 | 0.00 | 28 | 1008.0 |
| 20260505231627 | 28 | 218 | 3.2 | 3.2 | 0.00 | 0.00 | 0.00 | 30 | 1008.0 |
| 20260505231127 | 28 | 183 | 4.8 | 9.7 | 0.00 | 0.00 | 0.00 | 29 | 1008.0 |
| 20260505230627 | 28 | 210 | 3.2 | 4.8 | 0.00 | 0.00 | 0.00 | 28 | 1009.0 |
| 20260505230127 | 27 | 99 | 0.0 | 3.2 | 0.00 | 0.00 | 0.00 | 28 | 1009.0 |
| 20260505225628 | 27 | 316 | 1.6 | 4.8 | 0.00 | 0.00 | 0.00 | 30 | 1009.0 |
| 20260505225127 | 27 | 138 | 6.4 | 9.7 | 0.00 | 0.00 | 0.00 | 31 | 1009.0 |
| 20260505224628 | 27 | 108 | 3.2 | 6.4 | 0.00 | 0.00 | 0.00 | 33 | 1009.0 |
| 20260505224127 | 27 | 129 | 6.4 | 11.3 | 0.00 | 0.00 | 0.00 | 30 | 1009.0 |
| 20260505223627 | 27 | 168 | 4.8 | 6.4 | 0.00 | 0.00 | 0.00 | 28 | 1009.0 |
| 20260505223127 | 27 | 332 | 4.8 | 9.7 | 0.00 | 0.00 | 0.00 | 30 | 1009.0 |
| 20260505222627 | 27 | 321 | 6.4 | 12.9 | 0.00 | 0.00 | 0.00 | 30 | 1009.0 |
| 20260505222128 | 27 | 270 | 3.2 | 6.4 | 0.00 | 0.00 | 0.00 | 29 | 1009.0 |
| 20260505221627 | 27 | 136 | 3.2 | 4.8 | 0.00 | 0.00 | 0.00 | 31 | 1009.0 |
| 20260505221127 | 26 | 1 | 3.2 | 6.4 | 0.00 | 0.00 | 0.00 | 30 | 1009.0 |
| 20260505220627 | 26 | 82 | 3.2 | 6.4 | 0.00 | 0.00 | 0.00 | 31 | 1010.0 |
| 20260505220127 | 26 | 122 | 4.8 | 9.7 | 0.00 | 0.00 | 0.00 | 32 | 1010.0 |
| 20260505215627 | 26 | 98 | 6.4 | 12.9 | 0.00 | 0.00 | 0.00 | 32 | 1010.0 |
| 20260505215127 | 26 | 146 | 1.6 | 3.2 | 0.00 | 0.00 | 0.00 | 29 | 1010.0 |
| 20260505214627 | 26 | 85 | 4.8 | 6.4 | 0.00 | 0.00 | 0.00 | 30 | 1010.0 |
| 20260505214128 | 26 | 184 | 3.2 | 4.8 | 0.00 | 0.00 | 0.00 | 31 | 1010.0 |
| 20260505213628 | 26 | 157 | 3.2 | 8.0 | 0.00 | 0.00 | 0.00 | 32 | 1010.0 |
| 20260505213127 | 26 | 50 | 1.6 | 4.8 | 0.00 | 0.00 | 0.00 | 30 | 1010.0 |
| 20260505212628 | 26 | 91 | 3.2 | 6.4 | 0.00 | 0.00 | 0.00 | 32 | 1010.0 |
| 20260505212127 | 26 | 103 | 3.2 | 4.8 | 0.00 | 0.00 | 0.00 | 31 | 1010.0 |
| 20260505211627 | 26 | 84 | 3.2 | 6.4 | 0.00 | 0.00 | 0.00 | 33 | 1010.0 |
| 20260505211127 | 26 | 288 | 4.8 | 9.7 | 0.00 | 0.00 | 0.00 | 32 | 1010.0 |
| 20260505210628 | 26 | 0 | 3.2 | 8.0 | 0.00 | 0.00 | 0.00 | 34 | 1010.0 |
| 20260505210127 | 25 | 58 | 3.2 | 9.7 | 0.00 | 0.00 | 0.00 | 32 | 1010.0 |
| 20260505205627 | 25 | 113 | 6.4 | 8.0 | 0.00 | 0.00 | 0.00 | 31 | 1010.0 |
| 20260505205127 | 25 | 303 | 3.2 | 4.8 | 0.00 | 0.00 | 0.00 | 30 | 1010.0 |
| 20260505204628 | 25 | 131 | 6.4 | 8.0 | 0.00 | 0.00 | 0.00 | 32 | 1011.0 |
| 20260505204133 | 25 | 157 | 3.2 | 8.0 | 0.00 | 0.00 | 0.00 | 31 | 1011.0 |
| 20260505203628 | 25 | 324 | 4.8 | 9.7 | 0.00 | 0.00 | 0.00 | 33 | 1011.0 |
| 20260505203127 | 25 | 321 | 4.8 | 8.0 | 0.00 | 0.00 | 0.00 | 34 | 1011.0 |
| 20260505202627 | 25 | 306 | 1.6 | 3.2 | 0.00 | 0.00 | 0.00 | 30 | 1011.0 |
| 20260505202128 | 24 | 327 | 3.2 | 6.4 | 0.00 | 0.00 | 0.00 | 34 | 1011.0 |
| 20260505201628 | 24 | 140 | 3.2 | 9.7 | 0.00 | 0.00 | 0.00 | 32 | 1011.0 |
| 20260505201127 | 24 | 127 | 6.4 | 11.3 | 0.00 | 0.00 | 0.00 | 35 | 1011.0 |
| 20260505200627 | 24 | 92 | 3.2 | 4.8 | 0.00 | 0.00 | 0.00 | 33 | 1011.0 |
| 20260505200128 | 23 | 47 | 3.2 | 6.4 | 0.00 | 0.00 | 0.00 | 33 | 1011.0 |
| 20260505195627 | 23 | 77 | 6.4 | 8.0 | 0.00 | 0.00 | 0.00 | 34 | 1011.0 |
| 20260505195127 | 23 | 85 | 3.2 | 6.4 | 0.00 | 0.00 | 0.00 | 35 | 1011.0 |
| 20260505194627 | 23 | 164 | 4.8 | 8.0 | 0.00 | 0.00 | 0.00 | 31 | 1011.0 |
| 20260505194127 | 23 | 92 | 4.8 | 11.3 | 0.00 | 0.00 | 0.00 | 35 | 1011.0 |
| 20260505193627 | 24 | 118 | 6.4 | 9.7 | 0.00 | 0.00 | 0.00 | 33 | 1011.0 |
| 20260505193128 | 23 | 327 | 4.8 | 8.0 | 0.00 | 0.00 | 0.00 | 34 | 1011.0 |
| 20260505192627 | 23 | 220 | 3.2 | 6.4 | 0.00 | 0.00 | 0.00 | 33 | 1012.0 |
| 20260505192127 | 23 | 260 | 1.6 | 6.4 | 0.00 | 0.00 | 0.00 | 34 | 1012.0 |
| 20260505191627 | 23 | 147 | 4.8 | 9.7 | 0.00 | 0.00 | 0.00 | 33 | 1012.0 |
| 20260505191127 | 23 | 141 | 1.6 | 4.8 | 0.00 | 0.00 | 0.00 | 35 | 1012.0 |
| 20260505190629 | 23 | 229 | 3.2 | 8.0 | 0.00 | 0.00 | 0.00 | 34 | 1012.0 |
| 20260505190127 | 22 | 191 | 6.4 | 9.7 | 0.00 | 0.00 | 0.00 | 34 | 1012.0 |
| 20260505185627 | 22 | 194 | 4.8 | 9.7 | 0.00 | 0.00 | 0.00 | 33 | 1012.0 |
| 20260505185128 | 22 | 182 | 4.8 | 9.7 | 0.00 | 0.00 | 0.00 | 33 | 1012.0 |
| 20260505184627 | 22 | 184 | 3.2 | 8.0 | 0.00 | 0.00 | 0.00 | 33 | 1012.0 |
| 20260505184127 | 22 | 211 | 3.2 | 8.0 | 0.00 | 0.00 | 0.00 | 33 | 1012.0 |
| 20260505183628 | 22 | 192 | 4.8 | 8.0 | 0.00 | 0.00 | 0.00 | 35 | 1012.0 |
| 20260505183127 | 22 | 211 | 3.2 | 6.4 | 0.00 | 0.00 | 0.00 | 36 | 1012.0 |
| 20260505182628 | 22 | 340 | 1.6 | 4.8 | 0.00 | 0.00 | 0.00 | 33 | 1012.0 |
| 20260505182128 | 21 | 192 | 4.8 | 11.3 | 0.00 | 0.00 | 0.00 | 37 | 1012.0 |
| 20260505181627 | 21 | 167 | 3.2 | 6.4 | 0.00 | 0.00 | 0.00 | 35 | 1012.0 |
| 20260505181127 | 21 | 264 | 3.2 | 8.0 | 0.00 | 0.00 | 0.00 | 37 | 1012.0 |
| 20260505180627 | 21 | 263 | 4.8 | 8.0 | 0.00 | 0.00 | 0.00 | 36 | 1012.0 |
| 20260505180127 | 21 | 206 | 3.2 | 4.8 | 0.00 | 0.00 | 0.00 | 37 | 1012.0 |
| 20260505175628 | 20 | 266 | 3.2 | 4.8 | 0.00 | 0.00 | 0.00 | 38 | 1012.0 |
| 20260505175128 | 20 | 81 | 3.2 | 4.8 | 0.00 | 0.00 | 0.00 | 38 | 1013.0 |
| 20260505174627 | 20 | 202 | 3.2 | 6.4 | 0.00 | 0.00 | 0.00 | 40 | 1013.0 |
| 20260505174127 | 20 | 191 | 1.6 | 6.4 | 0.00 | 0.00 | 0.00 | 43 | 1013.0 |
| 20260505173627 | 20 | 197 | 4.8 | 6.4 | 0.00 | 0.00 | 0.00 | 41 | 1013.0 |
| 20260505173128 | 20 | 231 | 3.2 | 9.7 | 0.00 | 0.00 | 0.00 | 43 | 1013.0 |
| 20260505172627 | 19 | 156 | 6.4 | 12.9 | 0.00 | 0.00 | 0.00 | 41 | 1013.0 |
| 20260505172127 | 19 | 242 | 4.8 | 6.4 | 0.00 | 0.00 | 0.00 | 43 | 1013.0 |
| 20260505171627 | 18 | 171 | 4.8 | 9.7 | 0.00 | 0.00 | 0.00 | 44 | 1013.0 |
| 20260505171128 | 18 | 214 | 4.8 | 8.0 | 0.00 | 0.00 | 0.00 | 45 | 1013.0 |
| 20260505170627 | 18 | 235 | 3.2 | 6.4 | 0.00 | 0.00 | 0.00 | 43 | 1013.0 |
| 20260505170128 | 18 | 215 | 1.6 | 3.2 | 0.00 | 0.00 | 0.00 | 44 | 1013.0 |
| 20260505165627 | 18 | 227 | 3.2 | 6.4 | 0.00 | 0.00 | 0.00 | 46 | 1013.0 |
| 20260505165128 | 17 | 202 | 3.2 | 8.0 | 0.00 | 0.00 | 0.00 | 46 | 1013.0 |
| 20260505164627 | 17 | 196 | 3.2 | 4.8 | 0.00 | 0.00 | 0.00 | 47 | 1013.0 |
| 20260505164128 | 17 | 262 | 3.2 | 6.4 | 0.00 | 0.00 | 0.00 | 49 | 1013.0 |
| 20260505163627 | 17 | 229 | 3.2 | 4.8 | 0.00 | 0.00 | 0.00 | 48 | 1013.0 |
| 20260505163128 | 17 | 225 | 3.2 | 6.4 | 0.00 | 0.00 | 0.00 | 50 | 1013.0 |
| 20260505162628 | 16 | 202 | 3.2 | 3.2 | 0.00 | 0.00 | 0.00 | 49 | 1013.0 |
| 20260505162127 | 16 | 191 | 1.6 | 3.2 | 0.00 | 0.00 | 0.00 | 49 | 1013.0 |
| 20260505161627 | 16 | 158 | 3.2 | 6.4 | 0.00 | 0.00 | 0.00 | 50 | 1013.0 |
| 20260505161127 | 16 | 242 | 3.2 | 6.4 | 0.00 | 0.00 | 0.00 | 49 | 1013.0 |
| 20260505160628 | 15 | 122 | 1.6 | 3.2 | 0.00 | 0.00 | 0.00 | 51 | 1013.0 |
| 20260505160128 | 15 | 162 | 1.6 | 4.8 | 0.00 | 0.00 | 0.00 | 51 | 1013.0 |
| 20260505153127 | 14 | 214 | 1.6 | 3.2 | 0.00 | 0.00 | 0.00 | 53 | 1014.0 |
| 20260505152628 | 14 | 168 | 3.2 | 3.2 | 0.00 | 0.00 | 0.00 | 54 | 1014.0 |
| 20260505152127 | 15 | 163 | 3.2 | 4.8 | 0.00 | 0.00 | 0.00 | 52 | 1014.0 |
| 20260505151627 | 14 | 177 | 3.2 | 4.8 | 0.00 | 0.00 | 0.00 | 52 | 1014.0 |
| 20260505151128 | 13 | 168 | 1.6 | 4.8 | 0.00 | 0.00 | 0.00 | 54 | 1014.0 |
| 20260505150630 | 13 | 122 | 1.6 | 1.6 | 0.00 | 0.00 | 0.00 | 54 | 1014.0 |
| 20260505150129 | 13 | 121 | 1.6 | 3.2 | 0.00 | 0.00 | 0.00 | 56 | 1014.0 |